x

9439040 - Astoria, Or (asto3) Weather Station

5:54 - Tue 21st Oct 2014 All times are PDT. -7 hours from GMT.

  • Wind
    8mph, 11mph gusts
  • Sea Temp 62°f
  • Ar Temp 60°f
  • Sea Pressure 1011.7mb
  • 9439040 - Astoria, Or
  • 9439040 - Astoria, Or

More Historic Weather Station data

Upgrade to MSW Pro to gain access to the past 30 days of data for over 8000 Wavebouys and Weather Stations around the globe.

Join Pro

Comparision Forecast

View Surf forecast
   
Ter 10/21 5:54 8 11 mph 1011.7mb 62f 60f
5:48 9 17 mph 1011.7mb 62f 60f
5:42 10 20 mph 1011.7mb 62f 60f
5:36 7 11 mph 1011.9mb 62f 60f
5:30 7 10 mph 1011.9mb 62f 60f
5:24 6 15 mph 1012mb 62f 60f
5:18 6 7 mph 1012.1mb 62f 60f
5:12 6 10 mph 1012.1mb 62f 60f
5:06 6 10 mph 1012.1mb 62f 60f
5:00 6 8 mph 1012.2mb 62f 60f
4:54 6 10 mph 1012.3mb 62f 60f
4:48 8 14 mph 1012.3mb 62f 60f
4:42 10 16 mph 1012.4mb 62f 61f
4:36 8 11 mph 1012.4mb 62f 61f
4:30 13 15 mph 1012.5mb 62f 61f
4:24 9 16 mph 1012.5mb 62f 61f
4:18 9 16 mph 1012.6mb 61f 61f
4:12 9 17 mph 1012.5mb 62f 61f
4:06 11 18 mph 1012.6mb 61f 61f
4:00 9 16 mph 1012.7mb 61f 61f
3:54 10 20 mph 1012.7mb 61f 61f
3:48 9 16 mph 1012.8mb 62f 61f
3:42 8 11 mph 1012.8mb 62f 61f
3:36 9 13 mph 1012.8mb 62f 61f
3:30 10 13 mph 1012.9mb 62f 61f
3:24 8 11 mph 1012.9mb 62f 61f
3:18 8 11 mph 1012.9mb 62f 61f
3:12 7 11 mph 1012.9mb 62f 61f
3:06 7 8 mph 1012.9mb 62f 61f
3:00 7 11 mph 1012.9mb 61f 61f
2:54 8 9 mph 1012.9mb 61f 62f
2:48 7 10 mph 1013mb 62f 61f
2:42 6 10 mph 1012.9mb 62f 62f
2:36 9 13 mph 1013mb 61f 61f
2:30 6 11 mph 1013.1mb 62f 61f
2:24 7 10 mph 1013.2mb 62f 62f
2:18 10 11 mph 1013.3mb 62f 62f
2:12 5 7 mph 1013.3mb 62f 62f
2:06 6 8 mph 1013.3mb 62f 62f
2:00 6 11 mph 1013.3mb 62f 62f
1:54 10 17 mph 1013.3mb 62f 62f
1:48 14 21 mph 1013.4mb 62f 62f
1:42 11 24 mph 1013.6mb 62f 61f
1:36 8 11 mph 1013.7mb 62f 61f
1:30 6 9 mph 1013.7mb 62f 61f
1:24 6 8 mph 1013.8mb 62f 61f
1:18 6 10 mph 1013.8mb 62f 61f
1:12 7 22 mph 1013.9mb 62f 61f
1:06 15 23 mph 1013.9mb 62f 61f
1:00 6 8 mph 1014mb 61f 60f
12:54 6 13 mph 1014mb 62f 60f
12:48 3 7 mph 1014mb 61f 60f
12:42 5 7 mph 1014mb 61f 59f
12:36 9 13 mph 1014.2mb 61f 59f
12:30 10 18 mph 1014.2mb 61f -
12:24 11 18 mph 1014.4mb 62f -
12:18 6 13 mph 1014.4mb 62f 60f
12:12 9 11 mph 1014.4mb 62f 60f
12:06 5 7 mph 1014.3mb 62f 59f
12:00 3 7 mph 1014.3mb 62f 59f
11:54 3 7 mph 1014.3mb 62f 58f
11:48 6 8 mph 1014.3mb 62f 58f
11:42 6 8 mph 1014.2mb 62f 58f
11:36 5 9 mph 1014.2mb 62f 58f
11:30 8 13 mph 1014.1mb 62f 58f
11:24 11 17 mph 1014.1mb 62f 58f
11:18 9 11 mph 1014.1mb 62f 58f
11:12 5 9 mph 1014.1mb 62f 58f
11:06 2 3 mph 1014.1mb 62f 57f
11:00 2 6 mph 1014.1mb 62f 57f
10:54 5 8 mph 1014.1mb 62f 57f
10:48 6 8 mph 1014.1mb 62f 57f
10:42 6 7 mph 1014.1mb 62f 56f
10:36 3 6 mph 1014.2mb 62f 56f
10:30 3 6 mph - 62f -
10:24 6 11 mph - 62f -
10:18 7 11 mph 1014mb 62f 56f
10:12 7 11 mph 1014mb 62f 57f
10:06 7 9 mph 1014mb 62f 57f
10:00 7 8 mph 1013.8mb 62f 57f
9:54 6 8 mph 1013.7mb 62f 57f
9:48 3 9 mph 1013.6mb 62f 57f
9:42 7 8 mph 1013.7mb 62f 57f
9:36 6 9 mph 1013.7mb 62f 57f
9:30 5 8 mph 1013.8mb 62f 57f
9:24 6 9 mph 1013.7mb 62f 57f
9:18 6 8 mph 1013.7mb 62f 56f
9:12 7 10 mph 1013.5mb 62f 56f
9:06 8 11 mph 1013.4mb 62f 56f
9:00 8 9 mph 1013.4mb 62f 56f
8:54 8 10 mph 1013.3mb 62f 56f
8:48 8 10 mph 1013.3mb 61f 56f
8:42 8 10 mph 1013.3mb 61f 56f
8:36 9 10 mph 1013.2mb 61f 56f
8:30 9 11 mph 1013.1mb 61f 55f
8:24 9 11 mph 1013mb 61f 55f
8:18 9 11 mph 1012.9mb 61f 56f
8:12 9 11 mph 1012.8mb 61f 55f
8:06 9 11 mph 1012.8mb 61f 55f
8:00 8 11 mph 1012.7mb 61f 55f
7:54 9 13 mph 1012.8mb 61f 55f
7:48 8 10 mph 1012.8mb 61f 55f
7:42 9 10 mph 1012.6mb 61f 56f
7:36 9 11 mph 1012.6mb 61f 56f
7:30 10 11 mph 1012.5mb 61f 56f
7:24 9 11 mph 1012.5mb 61f 56f
7:18 9 13 mph 1012.4mb 61f 56f
7:12 9 11 mph 1012.4mb 61f 55f
7:06 8 10 mph 1012.4mb 61f 55f
7:00 8 10 mph 1012.4mb 61f 56f
6:54 8 13 mph 1012.4mb 61f 56f
6:48 9 15 mph 1012.4mb 61f 57f
6:42 10 14 mph 1012.4mb 61f 57f
6:36 9 13 mph 1012.3mb 62f 56f
6:30 9 13 mph 1012.2mb 62f 56f
6:24 10 14 mph 1012.2mb 62f 56f
6:18 9 13 mph 1012.2mb 62f 56f
6:12 9 14 mph 1012.2mb 62f 56f
6:06 10 13 mph 1012.2mb 62f 56f
6:00 10 13 mph 1012.1mb 62f 56f
5:54 9 13 mph 1012.2mb 62f 55f
5:48 9 14 mph 1012.1mb 62f 56f
5:42 10 14 mph 1012.1mb 62f 56f
5:36 10 13 mph 1012.1mb 62f 56f
5:30 10 14 mph 1012.1mb 62f 56f
5:24 10 14 mph 1012.1mb 62f 57f
5:18 10 14 mph 1012.1mb 62f 56f
5:12 10 15 mph 1012.1mb 62f 56f
5:06 10 13 mph 1011.9mb 62f 56f
5:00 13 16 mph 1011.9mb 62f 56f
4:54 11 16 mph 1011.8mb 62f 56f
4:48 10 13 mph 1011.7mb 62f 56f
4:42 7 10 mph 1011.7mb 62f 56f
4:36 9 14 mph 1011.6mb 62f 56f
4:30 9 14 mph 1011.5mb 62f 56f
4:24 8 11 mph 1011.5mb 62f 56f
4:18 8 13 mph 1011.4mb 62f 56f
4:12 9 14 mph 1011.4mb 62f 56f
4:06 8 14 mph 1011.4mb 62f 56f
4:00 9 14 mph 1011.3mb 62f 55f
3:54 9 11 mph 1011.2mb 62f 55f
3:48 9 11 mph 1011.1mb 62f 55f
3:42 9 11 mph 1011.2mb 62f 55f
3:36 9 11 mph 1011.1mb 62f 55f
3:30 9 14 mph 1011.1mb 62f 55f
3:24 10 14 mph 1011.1mb 62f 55f
3:18 10 15 mph 1011.1mb 62f 55f
3:12 10 16 mph 1011.1mb 62f 55f
3:06 10 14 mph 1011.1mb 62f 55f
3:00 9 15 mph 1011.1mb 62f 55f
2:54 10 16 mph 1011mb 62f 55f
2:48 11 17 mph 1011.1mb 62f 56f
2:42 14 20 mph 1011.2mb 62f 57f
2:36 6 9 mph 1011.2mb 62f 56f
2:30 7 10 mph 1010.9mb 62f 56f
2:24 7 11 mph 1010.8mb 62f 56f
2:18 6 8 mph 1010.8mb 62f 56f
2:12 7 9 mph 1010.8mb 62f 55f
2:06 8 10 mph 1010.6mb 62f 55f
2:00 9 14 mph 1010.6mb 62f 56f
1:54 7 11 mph 1010.6mb 62f 55f
1:48 8 11 mph 1010.5mb 62f 55f
1:42 6 10 mph 1010.5mb 62f 55f
1:36 8 11 mph 1010.5mb 62f 55f
1:30 8 10 mph 1010.5mb 62f 55f
1:24 7 11 mph 1010.5mb 62f 55f
1:18 8 11 mph 1010.5mb 62f 55f
1:12 8 11 mph 1010.5mb 62f 55f
1:06 7 11 mph 1010.5mb 62f 55f
1:00 8 11 mph 1010.5mb 62f 55f
12:54 8 9 mph 1010.4mb 62f 55f
12:48 5 7 mph 1010.5mb 62f 54f
12:42 5 6 mph 1010.4mb 62f 55f
12:36 3 5 mph 1010.2mb 62f 55f
12:30 3
mph
1010.2mb 62f 55f
12:24 2 5 mph 1010.1mb 62f 55f
12:18 3 5 mph 1010.1mb 62f 55f
12:12 3 6 mph 1010.1mb 62f 55f
12:06 5 6 mph 1010mb 62f 55f
12:00 5 6 mph 1010mb 62f 55f
Seg 10/20 11:54 5 6 mph 1010.1mb 62f 55f
11:48 5 8 mph 1010.1mb 62f 55f
11:42 6 7 mph 1010.1mb 62f 55f
11:36 5 7 mph 1010.1mb 62f 55f
11:30 6 7 mph 1010.1mb 62f 55f
11:24 6 8 mph 1010.1mb 62f 55f
11:18 6 8 mph 1010.1mb 62f 55f
11:12 6 7 mph 1010.1mb 62f 55f
11:06 5 6 mph 1010.1mb 62f 55f
11:00 5 6 mph 1010mb 62f 55f
10:54 5 6 mph 1010mb 62f 55f
10:48 3 6 mph 1010mb 62f 55f
10:42 5 7 mph 1010mb 62f 56f
10:36 6 7 mph 1009.9mb 62f 56f
10:30 6 7 mph 1009.9mb 62f 56f
10:24 6 8 mph 1009.8mb 62f 56f
10:18 7 11 mph 1009.8mb 62f 56f
10:12 6 8 mph 1009.9mb 62f 56f
10:06 6 8 mph 1009.8mb 62f 56f
10:00 5 8 mph 1009.8mb 62f 56f
9:54 5 6 mph 1009.7mb 62f 56f
9:48 5 6 mph 1009.7mb 62f 56f
9:42 5 6 mph 1009.6mb 62f 56f
9:36 6 7 mph 1009.5mb 62f 56f
9:30 5 6 mph 1009.5mb 62f 56f
9:24 6
mph
1009.4mb 62f 56f
9:18 5 6 mph 1009.3mb 62f 56f
9:12 3 6 mph 1009.3mb 62f 56f
9:06 6 8 mph 1009.2mb 62f 57f
9:00 7 9 mph 1009.1mb 62f 57f
8:54 7 8 mph 1009.1mb 62f 57f
8:48 5 6 mph 1009.1mb 62f 57f
8:42 6 9 mph 1009.1mb 62f 57f
8:36 6 9 mph 1009.1mb 62f 58f
8:30 6 7 mph 1009.2mb 62f 58f
8:24 3 7 mph 1009.2mb 62f 57f
8:18 6 7 mph 1009.2mb 62f 58f
8:12 5 7 mph 1009.2mb 62f 58f
8:06 5 7 mph 1009.2mb 62f 58f
8:00 3 5 mph 1009.1mb 62f 57f
6:24  -  mph - 62f -
6:18  -  mph - 62f -
6:12  -  mph - 62f -
6:06 13 21 mph - - -
6:00 10 20 mph - - -
5:54 11 17 mph - - -
5:48  -  mph - 62f 60f
5:42  -  mph - 62f 60f
5:36  -  mph - 62f 60f
5:30 15 21 mph 1008.6mb 62f 61f
5:24 16 21 mph 1008.5mb 62f 61f
5:18 13 17 mph 1008.6mb 62f 61f
5:12 13 15 mph 1008.6mb 62f 61f
5:06 9 16 mph 1008.6mb 62f 61f
5:00 14 18 mph 1008.6mb 62f 61f
4:54 14 21 mph 1008.6mb 62f 61f
4:48 11 16 mph 1008.5mb 62f 62f
4:42 10 14 mph 1008.5mb 62f 62f
4:36 7 16 mph 1008.5mb 62f 62f
4:30 11 16 mph 1008.5mb 62f 62f
4:24 10 14 mph 1008.5mb 62f 62f
4:18 9 18 mph 1008.5mb 62f 62f
4:12 11 15 mph 1008.5mb 62f 62f
4:06 10 20 mph 1008.5mb 62f 63f
4:00 13 20 mph 1008.5mb 62f 62f
3:54 9 13 mph 1008.5mb 62f 62f
3:48 11 20 mph 1008.5mb 62f 62f
3:42 16 21 mph 1008.6mb 62f 62f
3:36 13 21 mph 1008.5mb 62f 62f
3:30 15 21 mph 1008.5mb 62f 62f
3:24 10 21 mph 1008.5mb 62f 62f
3:18 5 9 mph 1008.5mb 62f 62f
3:12 2 3 mph 1008.5mb 62f 60f
3:06 1
mph
1008.6mb 62f 60f
3:00 1 3 mph 1008.4mb 62f 60f
2:54 3 7 mph 1008.5mb 62f 60f
2:48 5 6 mph 1008.5mb 62f 60f
2:42 6 9 mph 1008.5mb 62f 60f
2:36 9 10 mph 1008.6mb 62f 59f
2:30 6 7 mph 1008.6mb 62f 59f
2:24 3 7 mph 1008.5mb 62f 59f
2:18 8 10 mph 1008.6mb 62f 58f
2:12 7 11 mph 1008.6mb 62f 58f
2:06 8 14 mph 1008.4mb 62f 58f
2:00 9 16 mph 1008.4mb 62f 58f
1:54 6 10 mph 1008.3mb 62f 59f
1:48 8 13 mph 1008.5mb 62f 59f
1:42 8 14 mph 1008.4mb 62f 59f
1:36 9 16 mph 1008.4mb 62f 59f
1:30 10 14 mph 1008.4mb 62f 59f
1:24 8 11 mph 1008.5mb 62f 59f
1:18 8 14 mph 1008.4mb 62f 60f
1:12 8 13 mph 1008.4mb 62f 60f
1:06 9 14 mph 1008.5mb 62f 60f
1:00 8 10 mph 1008.5mb 62f 60f
12:54 6 7 mph 1008.6mb 62f 60f
12:48 6 7 mph 1008.7mb 62f 60f
12:42 3 5 mph 1008.7mb 62f 59f
12:36  -  3 mph 1008.7mb 62f 60f
12:30 1 5 mph 1008.7mb 62f 59f
12:24 3 8 mph 1008.7mb 62f 59f
12:18 6 8 mph 1008.7mb 62f 59f
12:12 6 8 mph 1008.6mb 62f 59f
12:06 6 8 mph 1008.5mb 62f 59f
12:00 6 8 mph 1008.5mb 62f 59f
11:54 6 8 mph 1008.5mb 62f 59f
11:48 6 8 mph 1008.4mb 62f 59f
11:42 6 7 mph 1008.4mb 62f 58f
11:36 5 8 mph 1008.4mb 62f 58f
11:30 6 9 mph 1008.5mb 62f 58f
11:24 5 8 mph 1008.5mb 62f 58f
11:18 1 8 mph 1008.4mb 62f 59f
11:12 6 8 mph 1008.5mb 62f 59f
11:06 5 8 mph 1008.7mb 62f 58f
11:00 2 7 mph 1008.6mb 62f 59f
10:54 6 8 mph 1008.6mb 62f 58f
10:48 6 7 mph 1008.5mb 62f 58f
10:42 6 7 mph 1008.5mb 62f 58f
10:36 5 7 mph 1008.5mb 62f 58f
10:30 6 8 mph 1008.5mb 62f 58f
10:24 5 7 mph 1008.5mb 62f 57f
10:18 3 8 mph 1008.3mb 62f 57f
10:12 6 7 mph 1008.5mb 62f 57f
10:06 5 6 mph 1008.5mb 62f 57f
10:00 5 7 mph 1008.4mb 62f 57f
9:54 5 8 mph 1008.3mb 62f 57f
9:48 5 9 mph 1008.1mb 62f 57f
9:42 6 9 mph 1008.1mb 62f 57f
9:36 7 9 mph 1008.1mb 62f 56f
9:30 8 10 mph 1008.1mb 62f 56f
9:24 6 8 mph 1008mb 62f 56f
9:18 7 13 mph 1007.9mb 62f 56f
9:12 8 11 mph 1007.9mb 62f 56f
9:06 10 13 mph 1007.9mb 62f 56f
9:00 9 15 mph 1007.9mb 62f 56f
8:54 11 16 mph 1007.9mb 62f 56f
8:48 7 10 mph 1007.9mb 62f 56f
8:42 8 14 mph 1007.8mb 62f 56f
8:36 9 13 mph 1007.8mb 62f 56f
8:30 8 11 mph 1007.8mb 62f 56f
8:24 7 9 mph 1007.8mb 62f 56f
8:18 7 8 mph 1007.7mb 62f 57f
8:12 7 8 mph 1007.5mb 62f 57f
8:06 6 8 mph 1007.4mb 62f 57f
8:00 6 8 mph 1007.3mb 62f 57f
7:54 5 6 mph 1007.3mb 62f 57f
7:48 5 6 mph 1007.2mb 62f 56f
7:42 3 5 mph 1007.1mb 62f 56f
7:36 5 6 mph 1007.2mb 62f 56f
7:30 6
mph
1007.1mb 62f 56f
7:24 6 7 mph 1007.1mb 62f 56f
7:18 5 6 mph 1007.1mb 62f 56f
7:12 2 3 mph 1007mb 62f 55f
7:06 2 6 mph 1007mb 62f 56f
7:00 3 7 mph 1007mb 62f 56f
6:54 3 7 mph 1006.9mb 62f 56f
6:48 7 8 mph 1006.8mb 62f 56f
6:42 5 6 mph 1006.8mb 62f 56f
6:36 7 9 mph 1006.9mb 62f 57f
6:30 7 11 mph 1006.8mb 62f 56f
6:24 8 11 mph 1006.8mb 62f 56f
6:18 7 9 mph 1006.8mb 62f 56f
6:12 9 15 mph 1006.9mb 62f 57f
6:06 10 15 mph 1007mb 62f 57f
6:00 9 14 mph 1007mb 62f 57f
5:54 9 14 mph 1006.9mb 62f 57f
5:48 9 16 mph 1007.1mb 62f 58f
5:42 7 9 mph 1007mb 62f 57f
5:36 6 9 mph 1007mb 62f 57f
5:30 6 8 mph 1006.9mb 62f 57f
5:24 6 9 mph 1006.8mb 62f 57f
5:18 6 8 mph 1006.8mb 62f 57f
5:12 6 8 mph 1006.8mb 62f 57f
5:06 6 8 mph 1006.8mb 62f 57f
5:00 5 7 mph 1006.8mb 62f 57f
4:54 6 7 mph 1006.8mb 62f 57f
4:48 6 8 mph 1006.8mb 62f 57f
4:42 6 8 mph 1006.9mb 62f 57f
4:36 7 8 mph 1006.9mb 62f 57f
4:30 5 6 mph 1006.8mb 62f 57f
4:24 5 6 mph 1006.6mb 62f 57f
4:18 3 6 mph 1006.8mb 62f 57f
4:12 2 6 mph 1006.8mb 62f 57f
4:06 6 8 mph 1006.8mb 62f 57f
4:00 5 6 mph 1006.9mb 62f 58f
3:54 3 6 mph 1006.8mb 62f 58f
3:48 5 8 mph 1006.8mb 62f 58f
3:42 6 8 mph 1006.9mb 62f 58f
3:36 2 5 mph 1006.9mb 62f 58f
3:30 2 3 mph 1006.9mb 62f 58f
3:24 3 5 mph 1007mb 62f 58f
3:18 3 5 mph 1007mb 62f 58f
3:06 5 6 mph 1007mb 62f 58f
3:00 3 10 mph 1006.9mb 62f 58f
2:54 3 6 mph 1007mb 62f 57f
2:48 1 3 mph 1006.8mb 62f 57f
2:42 2 3 mph 1006.8mb 62f 57f
2:36 2 5 mph 1006.9mb 62f 57f
2:30 3 6 mph 1006.9mb 62f 57f
2:24 2 3 mph 1006.7mb 62f 57f
2:18 2 5 mph 1006.6mb 62f 57f
2:12 3 5 mph 1006.7mb 62f 57f
2:06 3 5 mph 1006.8mb 62f 57f
2:00 3
mph
1006.7mb 62f 57f
1:54 2 3 mph 1006.7mb 62f 57f
1:48 1 3 mph 1006.6mb 62f 57f
1:42 2 5 mph 1006.4mb 62f 57f
1:36 3 5 mph 1006.4mb 62f 57f
1:30 3 5 mph 1006.5mb 62f 57f
1:24 2 3 mph 1006.3mb 62f 57f
1:18 5 6 mph 1006.3mb 62f 58f
1:12 5 8 mph 1006.4mb 62f 58f
1:06 6 7 mph 1006.4mb 62f 58f
1:00 6 8 mph 1006.4mb 62f 58f
12:54 6 8 mph 1006.4mb 62f 58f
12:48 6 9 mph 1006.5mb 62f 58f
12:42 6 9 mph 1006.4mb 62f 58f
12:36 6 7 mph 1006.5mb 62f 58f
12:30 5 8 mph 1006.5mb 62f 58f
12:24 3 7 mph 1006.6mb 62f 58f
12:18 5 9 mph 1006.8mb 62f 58f
12:12 7 11 mph 1006.9mb 62f 58f
12:06 8 13 mph 1006.9mb 62f 58f
12:00 9 10 mph 1007mb 62f 58f
Dom 10/19 11:54 6 10 mph 1006.8mb 62f 58f
11:48 7 9 mph 1007.1mb 62f 58f
11:42 6 8 mph 1007.1mb 62f 58f
11:36 7 9 mph 1007.1mb 62f 58f
11:30 8 11 mph 1006.9mb 62f 58f
11:24 9 11 mph 1006.9mb 62f 58f
11:18 10 13 mph 1006.8mb 62f 58f
11:12 8 11 mph 1006.5mb 62f 59f
11:06 8 9 mph 1006.6mb 62f 59f
11:00 7 16 mph 1006.6mb 62f 59f
10:54 13 16 mph 1006.9mb 62f 59f
10:48 7 10 mph 1006.7mb 62f 59f
10:42 7 13 mph 1006.8mb 62f 59f
10:36 8 11 mph 1006.9mb 62f 59f
10:30 8 14 mph 1006.6mb 62f 59f
10:24 8 10 mph 1006.5mb 62f 59f
10:18 6 7 mph 1006.6mb 62f 60f
10:12 2 6 mph 1006.5mb 62f 60f
10:06 6 8 mph 1006.5mb 62f 60f
10:00 3 7 mph 1006.5mb 62f 61f
9:48 3 5 mph 1006.2mb 62f 61f
9:42 5 6 mph 1006.2mb 62f 61f
9:36 2 5 mph 1006.2mb 62f 62f
9:30 3 6 mph 1006.2mb 62f 62f
9:24 5 9 mph 1006.2mb 62f 62f
9:18 7 14 mph 1006.1mb 62f 62f
9:12 7 9 mph 1006mb 62f 63f
9:06 6 11 mph 1006.1mb 62f 63f
9:00 6 11 mph 1006mb 62f 63f
8:54 9 15 mph 1005.9mb 62f 63f
8:48 9 17 mph 1005.9mb 62f 63f
8:30 5 8 mph 1006mb 62f 63f
8:24 5 10 mph 1006.2mb 62f 63f
8:18 7 10 mph 1006.2mb 62f 63f
8:12 7 11 mph 1006.3mb 62f 63f
8:06 7 11 mph 1006.4mb 62f 63f
8:00 6 8 mph 1006.5mb 62f 63f
7:54 6 14 mph 1006.6mb 62f 64f
7:48 3 8 mph 1006.7mb 62f 64f
7:42 6 8 mph 1006.7mb 62f 63f
7:36 6 8 mph 1006.7mb 62f 64f
7:30 7 10 mph 1006.7mb 62f -
7:24 7 10 mph 1006.7mb 62f -
7:18 8 11 mph 1006.8mb 62f 64f
7:12 6 11 mph 1006.9mb 62f 64f
7:06 5 9 mph 1006.9mb 62f 64f
7:00 7 16 mph 1007mb 62f 64f
6:54 11 20 mph 1006.9mb 62f 64f
6:48 9 14 mph 1006.9mb 62f 64f
6:42 3 8 mph 1007mb 62f 63f
6:36 5 10 mph 1007mb 62f 63f
6:30 9 13 mph 1007mb 62f 63f
6:24 9 14 mph 1007mb 62f 63f
6:18 9 14 mph 1006.9mb 62f 63f
6:12 10 14 mph 1006.8mb 62f 63f
6:06 9 18 mph 1006.9mb 62f 64f
6:00 15 22 mph 1006.9mb 62f 64f
5:54 15 21 mph 1006.9mb 62f 64f
5:48 17 23 mph 1006.9mb 62f 64f
5:42 11 14 mph 1006.8mb 62f 64f
5:36 10 17 mph 1006.8mb 62f 64f
5:30 14 20 mph 1006.8mb 62f 65f
5:24 14 25 mph 1006.9mb 62f 65f
5:18 16 23 mph 1006.9mb 62f 65f
5:12 15 23 mph 1006.9mb 62f 65f
5:06 16 23 mph 1006.9mb 62f 65f
5:00 14 18 mph 1006.9mb 62f 65f
4:54 14 22 mph 1006.8mb 62f 65f
4:48 11 16 mph 1006.9mb 62f 65f
4:42 11 20 mph 1006.9mb 62f 65f
4:36 9 11 mph 1006.9mb 62f 65f
4:30 8 15 mph 1006.9mb 62f 65f
4:24 9 17 mph 1006.9mb 62f 65f
4:18 13 18 mph 1007mb 62f 65f
4:12 10 18 mph 1006.9mb 62f 66f
4:06 9 14 mph 1006.9mb 62f 66f
4:00 8 13 mph 1006.9mb 62f 66f
3:54 8 14 mph 1006.8mb 62f 67f
3:48 10 20 mph 1006.8mb 62f 67f
3:42 13 16 mph 1006.8mb 62f 67f
3:36 13 20 mph 1006.8mb 62f 67f
3:30 9 15 mph 1006.7mb 62f 67f
3:24 11 15 mph 1006.7mb 62f 67f
3:18 14 22 mph 1006.6mb 62f 68f
3:12 17 28 mph 1006.7mb 62f 68f
3:06 13 22 mph 1006.7mb 62f 68f
3:00 11 17 mph 1006.8mb 62f 68f
2:54 9 20 mph 1006.7mb 62f 67f
2:48 15 22 mph 1006.7mb 62f 67f
2:42 9 15 mph 1006.8mb 62f 67f
2:36 10 18 mph 1006.8mb 62f 68f
2:30 13 23 mph 1006.9mb 62f 67f
2:24 11 17 mph 1007mb 62f 67f
2:18 11 16 mph 1007mb 62f 67f
2:12 14 22 mph 1007.1mb 62f 67f
2:06 10 23 mph 1007.2mb 62f 67f
2:00 13 18 mph 1007.2mb 62f 67f
1:54 13 18 mph 1007.3mb 62f 67f
1:48 16 24 mph 1007.4mb 62f 67f
1:42 15 22 mph 1007.5mb 62f 67f
1:36 18 26 mph 1007.5mb 62f 67f
1:30 16 24 mph 1007.5mb 62f 67f
1:24 11 28 mph 1007.6mb 62f 67f
1:18 14 22 mph 1007.6mb 62f 67f
1:12 10 21 mph 1007.7mb 62f 66f
1:06 17 23 mph 1007.7mb 62f 66f
1:00 14 24 mph 1007.8mb 62f 66f
12:54 16 24 mph 1007.8mb 62f 66f
12:48 14 25 mph 1007.9mb 62f 66f
12:42 15 24 mph 1007.9mb 62f 66f
12:36 13 17 mph 1008mb 62f 65f
12:30 7 11 mph 1008mb 62f 65f
12:24 10 17 mph 1008.1mb 62f 64f
12:18 11 16 mph 1008.1mb 62f 64f
12:12 10 17 mph 1008.1mb 62f 64f
12:06 8 14 mph 1008.1mb 62f 64f
12:00 10 18 mph 1008.2mb 62f 64f
11:54 10 16 mph 1008.2mb 62f 64f
11:48 5 9 mph 1008.2mb 62f 63f
11:42  -  2 mph 1008.2mb 62f 62f
11:36 2 5 mph 1008.1mb 62f 62f
11:30 3 6 mph 1008.1mb 62f 61f
11:24 6
mph
1008.1mb 62f 61f
11:18 3 5 mph 1008.2mb 62f 61f
11:12 3
mph
1008.2mb 62f 61f
11:06 1 2 mph 1008.3mb 62f 61f
11:00 1 3 mph 1008.4mb 62f 61f
10:54 2 3 mph 1008.4mb 62f 60f
10:48 1 5 mph 1008.4mb 62f 61f
10:42 3 7 mph 1008.4mb 62f 61f
10:36 3 5 mph 1008.4mb 62f 61f
10:30  -  2 mph 1008.2mb 62f 61f
10:24  -  3 mph 1008.1mb 62f 61f
10:18 2 3 mph 1008.1mb 62f 61f
10:12  -  2 mph 1008.1mb 62f 60f
10:06  -  2 mph 1008.1mb 62f 60f
10:00  -  3 mph 1008.2mb 62f 60f
9:54 1 2 mph 1008.2mb 62f 60f
9:48 2 5 mph 1008.1mb 62f 60f
9:42  -  5 mph 1008.1mb 62f 60f
9:36 1 5 mph 1008.2mb 62f 60f
9:30 3 6 mph 1008.1mb 62f 60f
9:24 2 5 mph 1008.1mb 62f 59f
9:18  -  6 mph 1008.1mb 62f 59f
9:12 3 6 mph 1008.2mb 62f 59f
9:06 1 5 mph 1008.2mb 62f 59f
9:00 1 5 mph 1008.1mb 62f 58f
8:54 1 6 mph 1008.1mb 62f 58f
8:48 5 6 mph 1008.1mb 62f 58f
8:42 3 6 mph 1008.1mb 62f 58f
8:36 3 6 mph 1008.1mb 62f 58f
8:30 2 5 mph 1008.1mb 62f 58f
8:24 2 5 mph 1008.2mb 62f 58f
8:18 2 3 mph 1008.1mb 62f 59f
8:12 1 2 mph 1008.1mb 62f 58f
8:06  -  2 mph 1008mb 62f 59f
8:00  -  2 mph 1008mb 62f 59f
7:54  -  5 mph 1008mb 62f 59f
7:48  -  5 mph 1007.9mb 62f 59f
7:42 2 5 mph 1007.9mb 62f 58f
7:36 2 6 mph 1007.9mb 62f 58f
7:30 5 7 mph 1007.9mb 62f 59f
7:24 5 7 mph 1007.9mb 62f 59f
7:18 5 6 mph 1007.8mb 62f 59f
7:12 5 6 mph 1007.8mb 62f 59f
7:06 3 6 mph 1007.8mb 62f 59f
7:00 2 6 mph 1007.7mb 62f 59f
6:54 2 6 mph 1007.7mb 62f 59f
6:48 3 6 mph 1007.8mb 62f 59f
6:42 3 7 mph 1007.7mb 62f 59f
6:36 2 7 mph 1007.7mb 62f 59f
6:30 5 6 mph 1007.9mb 62f 59f
6:24 3 5 mph 1007.9mb 62f 59f
6:18 2 6 mph 1008mb 62f 59f
6:12 3 6 mph 1008.1mb 62f 59f
6:06 2 5 mph 1008mb 62f 59f
6:00 2 3 mph 1008mb 62f 59f
5:54 1 5 mph 1008mb 62f 59f
5:48 3 6 mph 1008.1mb 62f 59f
5:42 5 7 mph 1007.9mb 62f 59f
5:36 5
mph
1008mb 62f 59f
5:30 3 6 mph 1007.9mb 62f 59f
5:24 2 5 mph 1008.2mb 62f 59f
5:18 2 6 mph 1008.3mb 62f 59f
5:12  -  mph 1008.2mb 62f 59f
5:06  -  mph 1008.3mb 62f 59f
5:00  -  mph 1008.3mb 62f 59f
4:54  -  mph 1008.1mb 62f 59f
2:06 6 7 mph 1009.1mb 62f 59f
2:00 3 5 mph 1009.1mb 62f 59f
1:54 2 3 mph 1009.1mb 62f 59f
1:48 2 3 mph 1009.3mb 62f 59f
1:42  -  5 mph 1009.3mb 62f 59f
1:36 2 5 mph 1009.2mb 62f 60f
1:30 2 5 mph 1009.2mb 62f 60f
1:24 3 5 mph 1009.4mb 62f 60f
1:18 2 5 mph 1009.4mb 62f 60f
1:12 2
mph
1009.5mb 62f 60f
1:06 1 3 mph 1009.5mb 62f 60f
1:00  -  5 mph 1009.5mb 62f 60f
12:54  -  2 mph 1009.6mb 62f 60f
12:48  -  3 mph 1009.6mb 62f 60f
12:42 1 7 mph 1009.6mb 62f 61f
12:36  -  5 mph 1009.5mb 62f 60f
12:30  -  2 mph 1009.5mb 62f 60f
12:24  -  2 mph 1009.5mb 62f 60f
12:18  -  3 mph 1009.5mb 62f 60f
12:12 1 3 mph 1009.6mb 62f 60f
12:06  -  2 mph 1009.6mb 62f 60f
12:00  -  1 mph 1009.6mb 62f 60f
Sáb 10/18 11:54 1 2 mph 1009.6mb 62f 60f
11:48  -  1 mph 1009.6mb 62f 60f
11:42 1 2 mph 1009.6mb 62f 60f
11:36 3 5 mph 1009.6mb 62f 61f
11:30 2 7 mph 1009.6mb 62f 60f
11:24 5 7 mph 1009.5mb 62f 60f
11:18 5 6 mph 1009.4mb 62f 60f
11:12 2 3 mph 1009.5mb 62f 60f
11:06 1 2 mph 1009.5mb 62f 60f
11:00  -  2 mph 1009.5mb 62f 60f
10:54 2 3 mph 1009.5mb 62f 60f
10:48  -  1 mph 1009.5mb 62f 60f
10:42 1 3 mph 1009.5mb 62f 61f
10:36  -  5 mph 1009.6mb 62f 60f
10:30 3 5 mph 1009.6mb 62f 61f
10:24 2 8 mph 1009.7mb 62f 61f
10:18 3 6 mph 1009.8mb 62f 61f
10:12 3 6 mph 1009.9mb 62f 61f
10:06 2 3 mph 1010mb 62f 61f
10:00  -  2 mph 1010.1mb 62f 61f
9:54  -  3 mph 1010.3mb 62f 60f
9:48 2 3 mph 1010.4mb 62f 60f
9:42 1 2 mph 1010.5mb 62f 61f
9:36 1 2 mph 1010.5mb 62f 60f
9:30 1 3 mph 1010.6mb 62f 61f
9:24  -  2 mph 1010.6mb 62f 61f
9:18 1 2 mph 1010.6mb 62f 61f
9:12  -  6 mph 1010.6mb 62f 61f
9:06 2 3 mph 1010.8mb 62f 61f
9:00 2 5 mph 1010.8mb 62f 61f
8:54 2 3 mph 1010.9mb 62f 61f
8:48 1 3 mph 1011mb 62f 61f
8:42 2 5 mph 1011.1mb 62f 61f
8:36 1 2 mph 1011.2mb 62f 61f
8:30 2 5 mph 1011.4mb 62f 61f
8:24 3 5 mph 1011.5mb 62f 62f
8:18 1 2 mph 1011.5mb 62f 62f
8:12 1 3 mph 1011.5mb 62f 62f
8:06 1 2 mph 1011.5mb 62f 62f
8:00 2 5 mph 1011.6mb 62f 62f
7:54 1 2 mph 1011.6mb 62f 62f
7:48 1 2 mph 1011.7mb 62f 61f
7:42  -  2 mph 1011.8mb 62f 61f
7:36 2 5 mph 1011.8mb 62f 61f
7:30 2
mph
1011.8mb 62f 61f
7:24  -  1 mph 1011.9mb 62f 61f
7:18  -  2 mph 1012mb 62f 62f
7:12  -  1 mph 1012.1mb 62f 62f
7:06 1 3 mph 1012.1mb 62f 62f
7:00 2 3 mph 1012.1mb 62f 62f
6:54  -  2 mph 1012.2mb 62f 62f
6:48 2 3 mph 1012.3mb 62f 62f
6:42 2 3 mph 1012.4mb 62f 62f
6:36 2 3 mph 1012.5mb 62f 62f
6:30 1 3 mph 1012.5mb 62f 62f
6:24  -  2 mph 1012.5mb 62f 62f
6:18 2
mph
1012.5mb 62f 62f
6:12  -  1 mph 1012.6mb 62f 62f
6:06  -  2 mph 1012.7mb 62f 62f
6:00  -  3 mph 1012.8mb 62f 62f
5:54 2
mph
1012.8mb 62f 62f
5:48  -  1 mph 1012.9mb 62f 63f
5:42 1 2 mph 1012.9mb 62f 63f
5:36  -  1 mph 1012.9mb 62f 63f
5:30  -  1 mph 1013mb 62f 63f
5:24  -  2 mph 1013mb 62f 63f
5:18 1 2 mph 1013mb 61f 63f
5:12  -  2 mph 1013.1mb 61f 63f
5:06  -  2 mph 1013.1mb 62f 64f
5:00 1 2 mph 1013.1mb 62f 63f
4:54  -  2 mph 1013.3mb 62f 63f
4:48 2 5 mph 1013.4mb 62f 63f
4:42 2 3 mph 1013.4mb 62f 63f
4:36 2 3 mph 1013.5mb 62f 63f
4:30 1 6 mph 1013.5mb 62f 63f
4:24 5 6 mph 1013.7mb 62f 63f
4:18 5 6 mph 1013.6mb 62f 63f
4:12 5 7 mph 1013.7mb 62f 63f
4:06 2 3 mph 1013.7mb 62f 63f
4:00 1 2 mph 1013.7mb 62f 63f
3:54  -  2 mph 1013.8mb 62f 63f
3:48  -  1 mph 1013.9mb 62f 63f
3:42  -  2 mph 1014mb 62f 62f
3:36 1 3 mph 1013.9mb 62f 62f
3:30 1 3 mph 1013.9mb 62f 62f
3:24  -  7 mph 1013.9mb 62f 62f
3:18 6 8 mph 1013.9mb 62f 62f
3:12 6 7 mph 1014mb 62f 62f
3:06 3 5 mph 1014mb 62f 62f
3:00 2 5 mph 1014mb 62f 62f
2:54 2 5 mph 1014mb 62f 62f
2:48 3 5 mph 1014mb 62f 63f
2:42 5 8 mph 1014.1mb 62f 63f
2:36 3 6 mph 1014.1mb 62f 63f
2:30 2 3 mph 1014.1mb 62f 64f
2:24 2 3 mph 1014.1mb 62f 64f
2:18  -  3 mph 1014mb 62f 64f
2:12 1 3 mph 1014mb 62f 64f
2:06 1 2 mph 1014.1mb 62f 64f
2:00  -  3 mph 1014.2mb 62f 64f
1:54 2 3 mph 1014.2mb 62f 64f
1:48  -  2 mph 1014.2mb 62f 64f
1:42  -  3 mph 1014.3mb 62f 64f
1:36  -  5 mph 1014.3mb 62f 64f
1:30 3 6 mph 1014.2mb 62f 63f
1:24 5 6 mph 1014.2mb 62f 63f
1:18 3 5 mph 1014.3mb 62f 63f
1:12 2 6 mph 1014.4mb 62f 63f
1:06 2 6 mph 1014.4mb 62f 63f
1:00 3 7 mph 1014.4mb 62f 63f
12:54 5 7 mph 1014.3mb 62f 63f
12:48 6 8 mph 1014.3mb 62f 63f
12:42 6 8 mph 1014.5mb 62f 62f
12:36 3 6 mph 1014.5mb 62f 62f
12:30 2 6 mph 1014.6mb 62f 62f
12:24 2 6 mph 1014.6mb 62f 62f
12:18 3 6 mph 1014.6mb 62f 62f
12:12 2 6 mph 1014.5mb 61f 62f
12:06 3 6 mph 1014.5mb 61f 62f
12:00 2 5 mph 1014.5mb 61f 62f
11:54 2 5 mph 1014.5mb 61f 62f
11:48 2 5 mph 1014.5mb 61f 62f
11:42 2 3 mph 1014.5mb 61f 62f
11:36 2 3 mph 1014.5mb 61f 62f
11:30 2 5 mph 1014.5mb 62f 62f
11:24 2 6 mph 1014.5mb 62f 61f
11:18 3 6 mph 1014.5mb 62f 61f
11:12 1 6 mph 1014.4mb 62f 61f
11:06 2 6 mph 1014.5mb 62f 61f
11:00 2 5 mph 1014.5mb 62f 61f
10:54 2 6 mph 1014.5mb 62f 61f
10:48 3 5 mph 1014.5mb 62f 61f
10:42 3 5 mph 1014.5mb 62f 60f
10:36 2 5 mph 1014.6mb 62f 60f
10:30 2 3 mph 1014.5mb 62f 60f
10:24 3 6 mph 1014.6mb 62f 60f
10:18 5 6 mph 1014.6mb 62f 60f
10:12 3 6 mph 1014.6mb 62f 60f
10:06 5 6 mph 1014.6mb 62f 60f
10:00 5 6 mph 1014.5mb 62f 60f
9:54 6 7 mph 1014.4mb 62f 60f
9:48 3 5 mph 1014.4mb 62f 60f
9:42 1 5 mph 1014.4mb 62f 60f
9:36 3 6 mph 1014.4mb 62f 60f
9:30 3 5 mph 1014.3mb 62f 60f
9:24 3 6 mph 1014.3mb 62f 60f
9:18 3 6 mph 1014.3mb 62f 59f
9:12 3 6 mph 1014.2mb 62f 59f
9:06 2 5 mph 1014.2mb 62f 59f
9:00 5 6 mph 1014.4mb 62f 59f
8:54 3 6 mph 1014.3mb 62f 59f
8:48 5 6 mph 1014.2mb 62f 59f
8:42 6 7 mph 1014.2mb 62f 59f
8:36 3 7 mph 1014mb 62f 59f
8:30 6 8 mph 1014mb 62f 59f
8:24 6 8 mph 1013.9mb 62f 59f
8:18 6 7 mph 1013.9mb 62f 59f
8:12 5 7 mph 1013.9mb 62f 59f
8:06 6 7 mph 1013.8mb 62f 59f
8:00 7 8 mph 1013.8mb 62f 59f
7:54 6 7 mph 1013.7mb 62f 59f
7:48 6 8 mph 1013.7mb 62f 59f
7:42 8 9 mph 1013.7mb 62f 60f
7:36 6 7 mph 1013.6mb 62f 60f
7:30 6 7 mph 1013.5mb 62f 60f
7:24 6 8 mph 1013.5mb 62f 60f
7:18 5 7 mph 1013.5mb 62f 59f
7:12 6 8 mph 1013.4mb 62f 59f
7:06 5 7 mph 1013.4mb 62f 59f
7:00 5 7 mph 1013.4mb 62f 59f
6:54 3 5 mph 1013.4mb 62f 59f
6:48 2 5 mph 1013.4mb 62f 59f
6:42 2 6 mph 1013.4mb 62f 59f
6:36 5 7 mph 1013.4mb 61f 60f
6:30 6 8 mph 1013.3mb 61f 60f
6:24 7 9 mph 1013.3mb 61f 60f
6:18 7 9 mph 1013.1mb 61f 60f
6:12 6 8 mph 1013.1mb 61f 60f
6:06 3 5 mph 1013.1mb 61f 60f
6:00 2 3 mph 1013.1mb 61f 60f
5:54 1 3 mph 1013mb 61f 60f
5:48 2 5 mph 1012.9mb 61f 60f
5:42 5 7 mph 1012.9mb 61f 60f
5:36 5 8 mph 1013mb 61f 60f
5:30 6 7 mph 1013mb 61f 60f
5:24 5 9 mph 1013mb 61f 60f
5:18 5 7 mph 1013.1mb 61f 60f
5:12 3 5 mph 1013.1mb 61f 60f
5:06 5 8 mph 1013.2mb 61f 60f
5:00 6 8 mph 1013.1mb 61f 60f
4:54 6 9 mph 1013mb 61f 60f
4:48 6 10 mph 1012.9mb 61f 60f
4:42 9 10 mph 1012.9mb 61f 60f
4:36 6 11 mph 1012.8mb 61f 60f
4:30 7 10 mph 1012.8mb 61f 60f
4:24 6 8 mph 1012.8mb 61f 60f
4:18 6 7 mph 1012.8mb 61f 60f
4:12 6 10 mph 1012.7mb 61f 60f
4:06 7 11 mph 1012.7mb 61f 60f
4:00 6 10 mph 1012.6mb 61f 60f
3:54 5 8 mph 1012.6mb 61f 60f
3:48 6 7 mph 1012.6mb 61f 60f
3:42 5 7 mph 1012.5mb 61f 59f
3:36 2 5 mph 1012.5mb 61f 59f
3:30 5
mph
1012.5mb 61f 59f
3:24 2 6 mph 1012.4mb 61f 59f
3:18 1 3 mph 1012.5mb 61f 59f
3:12 2 3 mph 1012.4mb 61f 59f
3:06 1 2 mph 1012.4mb 61f 59f
3:00  -  1 mph 1012.3mb 61f 59f
2:54 2 3 mph 1012.3mb 61f 59f
2:48 1 3 mph 1012.3mb 61f 59f
2:42 2 3 mph 1012.3mb 61f 59f
2:36 1 2 mph 1012.2mb 61f 59f
2:30 2
mph
1012.2mb 61f 59f
2:24 1 2 mph 1012.1mb 61f 60f
2:18 1 3 mph 1012.1mb 61f 60f
2:12 2 3 mph 1012.1mb 61f 60f
2:06 2 3 mph 1012mb 61f 60f
2:00 3 5 mph 1012mb 61f 60f